sensor_id;sensor_type;location;lat;lon;timestamp;temperature;humidity
7016;DHT22;3548;48.402;9.990;2023-07-29T00:00:46;16.50;99.90
7016;DHT22;3548;48.402;9.990;2023-07-29T00:03:12;16.50;99.90
7016;DHT22;3548;48.402;9.990;2023-07-29T00:05:38;16.40;99.90
7016;DHT22;3548;48.402;9.990;2023-07-29T00:08:04;16.40;99.90
7016;DHT22;3548;48.402;9.990;2023-07-29T00:10:36;16.40;99.90
7016;DHT22;3548;48.402;9.990;2023-07-29T00:13:01;16.30;99.90
7016;DHT22;3548;48.402;9.990;2023-07-29T00:15:27;16.30;99.90
7016;DHT22;3548;48.402;9.990;2023-07-29T00:17:52;16.30;99.90
7016;DHT22;3548;48.402;9.990;2023-07-29T00:20:18;16.20;99.90
7016;DHT22;3548;48.402;9.990;2023-07-29T00:22:43;16.20;99.90
7016;DHT22;3548;48.402;9.990;2023-07-29T00:25:09;16.20;99.90
7016;DHT22;3548;48.402;9.990;2023-07-29T00:27:34;16.20;99.90
7016;DHT22;3548;48.402;9.990;2023-07-29T00:30:00;16.20;99.90
7016;DHT22;3548;48.402;9.990;2023-07-29T00:32:29;16.20;99.90
7016;DHT22;3548;48.402;9.990;2023-07-29T00:34:54;16.20;99.90
7016;DHT22;3548;48.402;9.990;2023-07-29T00:37:20;16.20;99.90
7016;DHT22;3548;48.402;9.990;2023-07-29T00:39:46;16.10;99.90
7016;DHT22;3548;48.402;9.990;2023-07-29T00:42:12;16.10;99.90
7016;DHT22;3548;48.402;9.990;2023-07-29T00:44:37;16.10;99.90
7016;DHT22;3548;48.402;9.990;2023-07-29T00:47:03;16.10;99.90
7016;DHT22;3548;48.402;9.990;2023-07-29T00:49:30;16.10;99.90
7016;DHT22;3548;48.402;9.990;2023-07-29T00:51:55;16.00;99.90
7016;DHT22;3548;48.402;9.990;2023-07-29T00:54:21;16.00;99.90
7016;DHT22;3548;48.402;9.990;2023-07-29T00:56:47;16.00;99.90
7016;DHT22;3548;48.402;9.990;2023-07-29T00:59:12;15.90;99.90
7016;DHT22;3548;48.402;9.990;2023-07-29T01:01:38;15.90;99.90
7016;DHT22;3548;48.402;9.990;2023-07-29T01:04:04;15.90;99.90
7016;DHT22;3548;48.402;9.990;2023-07-29T01:06:38;15.90;99.90
7016;DHT22;3548;48.402;9.990;2023-07-29T01:15:14;15.90;99.90
7016;DHT22;3548;48.402;9.990;2023-07-29T01:17:52;15.90;99.90
7016;DHT22;3548;48.402;9.990;2023-07-29T01:20:19;15.90;99.90
7016;DHT22;3548;48.402;9.990;2023-07-29T01:22:46;15.90;99.90
7016;DHT22;3548;48.402;9.990;2023-07-29T01:25:12;15.90;99.90
7016;DHT22;3548;48.402;9.990;2023-07-29T01:27:38;15.90;99.90
7016;DHT22;3548;48.402;9.990;2023-07-29T01:30:05;16.00;99.90
7016;DHT22;3548;48.402;9.990;2023-07-29T01:37:48;16.00;99.90
7016;DHT22;3548;48.402;9.990;2023-07-29T01:40:15;16.00;99.90
7016;DHT22;3548;48.402;9.990;2023-07-29T01:42:42;15.90;99.90
7016;DHT22;3548;48.402;9.990;2023-07-29T01:45:08;15.90;99.90
7016;DHT22;3548;48.402;9.990;2023-07-29T01:47:33;15.90;99.90
7016;DHT22;3548;48.402;9.990;2023-07-29T01:49:59;15.90;99.90
7016;DHT22;3548;48.402;9.990;2023-07-29T01:52:24;15.80;99.90
7016;DHT22;3548;48.402;9.990;2023-07-29T01:54:50;15.90;99.90
7016;DHT22;3548;48.402;9.990;2023-07-29T01:57:15;15.80;99.90
7016;DHT22;3548;48.402;9.990;2023-07-29T01:59:41;15.80;99.90
7016;DHT22;3548;48.402;9.990;2023-07-29T02:02:06;15.90;99.90
7016;DHT22;3548;48.402;9.990;2023-07-29T02:04:32;15.90;99.90
7016;DHT22;3548;48.402;9.990;2023-07-29T02:06:58;15.90;99.90
7016;DHT22;3548;48.402;9.990;2023-07-29T02:09:23;15.90;99.90
7016;DHT22;3548;48.402;9.990;2023-07-29T02:11:51;15.90;99.90
7016;DHT22;3548;48.402;9.990;2023-07-29T02:14:16;15.90;99.90
7016;DHT22;3548;48.402;9.990;2023-07-29T02:16:42;15.90;99.90
7016;DHT22;3548;48.402;9.990;2023-07-29T02:19:07;15.90;99.90
7016;DHT22;3548;48.402;9.990;2023-07-29T02:21:33;15.90;99.90
7016;DHT22;3548;48.402;9.990;2023-07-29T02:23:58;15.90;99.90
7016;DHT22;3548;48.402;9.990;2023-07-29T02:26:24;15.90;99.90
7016;DHT22;3548;48.402;9.990;2023-07-29T02:28:49;15.90;99.90
7016;DHT22;3548;48.402;9.990;2023-07-29T02:31:17;15.90;99.90
7016;DHT22;3548;48.402;9.990;2023-07-29T02:33:43;15.90;99.90
7016;DHT22;3548;48.402;9.990;2023-07-29T02:36:11;15.90;99.90
7016;DHT22;3548;48.402;9.990;2023-07-29T02:38:36;15.90;99.90
7016;DHT22;3548;48.402;9.990;2023-07-29T02:41:02;15.90;99.90
7016;DHT22;3548;48.402;9.990;2023-07-29T02:43:27;15.90;99.90
7016;DHT22;3548;48.402;9.990;2023-07-29T02:45:53;15.90;99.90
7016;DHT22;3548;48.402;9.990;2023-07-29T02:48:19;15.80;99.90
7016;DHT22;3548;48.402;9.990;2023-07-29T02:50:44;15.80;99.90
7016;DHT22;3548;48.402;9.990;2023-07-29T02:53:10;15.70;99.90
7016;DHT22;3548;48.402;9.990;2023-07-29T02:55:35;15.80;99.90
7016;DHT22;3548;48.402;9.990;2023-07-29T02:58:01;15.70;99.90
7016;DHT22;3548;48.402;9.990;2023-07-29T03:00:26;15.70;99.90
7016;DHT22;3548;48.402;9.990;2023-07-29T03:02:52;15.70;99.90
7016;DHT22;3548;48.402;9.990;2023-07-29T03:05:17;15.70;99.90
7016;DHT22;3548;48.402;9.990;2023-07-29T03:07:43;15.70;99.90
7016;DHT22;3548;48.402;9.990;2023-07-29T03:10:09;15.70;99.90
7016;DHT22;3548;48.402;9.990;2023-07-29T03:12:36;15.70;99.90
7016;DHT22;3548;48.402;9.990;2023-07-29T03:15:01;15.60;99.90
7016;DHT22;3548;48.402;9.990;2023-07-29T03:17:27;15.60;99.90
7016;DHT22;3548;48.402;9.990;2023-07-29T03:19:53;15.60;99.90
7016;DHT22;3548;48.402;9.990;2023-07-29T03:22:18;15.60;99.90
7016;DHT22;3548;48.402;9.990;2023-07-29T03:24:44;15.60;99.90
7016;DHT22;3548;48.402;9.990;2023-07-29T03:27:09;15.60;99.90
7016;DHT22;3548;48.402;9.990;2023-07-29T03:29:35;15.60;99.90
7016;DHT22;3548;48.402;9.990;2023-07-29T03:32:01;15.70;99.90
7016;DHT22;3548;48.402;9.990;2023-07-29T03:34:26;15.70;99.90
7016;DHT22;3548;48.402;9.990;2023-07-29T03:36:52;15.70;99.90
7016;DHT22;3548;48.402;9.990;2023-07-29T03:39:18;15.70;99.90
7016;DHT22;3548;48.402;9.990;2023-07-29T03:41:43;15.70;99.90
7016;DHT22;3548;48.402;9.990;2023-07-29T03:44:09;15.70;99.90
7016;DHT22;3548;48.402;9.990;2023-07-29T03:46:34;15.80;99.90
7016;DHT22;3548;48.402;9.990;2023-07-29T03:49:00;15.80;99.90
7016;DHT22;3548;48.402;9.990;2023-07-29T03:51:25;15.80;99.90
7016;DHT22;3548;48.402;9.990;2023-07-29T03:53:51;15.80;99.90
7016;DHT22;3548;48.402;9.990;2023-07-29T03:56:16;15.80;99.90
7016;DHT22;3548;48.402;9.990;2023-07-29T03:58:43;15.80;99.90
7016;DHT22;3548;48.402;9.990;2023-07-29T04:01:09;15.80;99.90
7016;DHT22;3548;48.402;9.990;2023-07-29T04:03:34;15.80;99.90
7016;DHT22;3548;48.402;9.990;2023-07-29T04:06:00;15.90;99.90
7016;DHT22;3548;48.402;9.990;2023-07-29T04:08:26;15.90;99.90
7016;DHT22;3548;48.402;9.990;2023-07-29T04:10:52;15.90;99.90
7016;DHT22;3548;48.402;9.990;2023-07-29T04:13:17;15.90;99.90
7016;DHT22;3548;48.402;9.990;2023-07-29T04:15:43;16.00;99.90
7016;DHT22;3548;48.402;9.990;2023-07-29T04:18:08;16.00;99.90
7016;DHT22;3548;48.402;9.990;2023-07-29T04:20:34;16.10;99.90
7016;DHT22;3548;48.402;9.990;2023-07-29T04:22:59;16.10;99.90
7016;DHT22;3548;48.402;9.990;2023-07-29T04:25:25;16.10;99.90
7016;DHT22;3548;48.402;9.990;2023-07-29T04:27:50;16.10;99.90
7016;DHT22;3548;48.402;9.990;2023-07-29T04:30:16;16.10;99.90
7016;DHT22;3548;48.402;9.990;2023-07-29T04:32:42;16.10;99.90
7016;DHT22;3548;48.402;9.990;2023-07-29T04:35:08;16.10;99.90
7016;DHT22;3548;48.402;9.990;2023-07-29T04:37:34;16.10;99.90
7016;DHT22;3548;48.402;9.990;2023-07-29T04:39:59;16.10;99.90
7016;DHT22;3548;48.402;9.990;2023-07-29T04:42:25;16.10;99.90
7016;DHT22;3548;48.402;9.990;2023-07-29T04:44:50;16.10;99.90
7016;DHT22;3548;48.402;9.990;2023-07-29T04:47:16;16.10;99.90
7016;DHT22;3548;48.402;9.990;2023-07-29T04:49:41;16.10;99.90
7016;DHT22;3548;48.402;9.990;2023-07-29T04:52:07;16.10;99.90
7016;DHT22;3548;48.402;9.990;2023-07-29T04:54:33;16.10;99.90
7016;DHT22;3548;48.402;9.990;2023-07-29T04:56:58;16.10;99.90
7016;DHT22;3548;48.402;9.990;2023-07-29T04:59:24;16.10;99.90
7016;DHT22;3548;48.402;9.990;2023-07-29T05:01:49;16.20;99.90
7016;DHT22;3548;48.402;9.990;2023-07-29T05:04:15;16.20;99.90
7016;DHT22;3548;48.402;9.990;2023-07-29T05:06:41;16.20;99.90
7016;DHT22;3548;48.402;9.990;2023-07-29T05:09:17;16.30;99.90
7016;DHT22;3548;48.402;9.990;2023-07-29T05:11:46;16.40;99.90
7016;DHT22;3548;48.402;9.990;2023-07-29T05:14:16;16.40;99.90
7016;DHT22;3548;48.402;9.990;2023-07-29T05:16:42;16.60;99.90
7016;DHT22;3548;48.402;9.990;2023-07-29T05:19:08;16.70;99.90
7016;DHT22;3548;48.402;9.990;2023-07-29T05:21:33;16.80;99.90
7016;DHT22;3548;48.402;9.990;2023-07-29T05:23:59;17.00;99.90
7016;DHT22;3548;48.402;9.990;2023-07-29T05:26:25;17.20;99.90
7016;DHT22;3548;48.402;9.990;2023-07-29T05:28:51;17.30;99.90
7016;DHT22;3548;48.402;9.990;2023-07-29T05:31:16;17.30;99.90
7016;DHT22;3548;48.402;9.990;2023-07-29T05:33:42;17.40;99.90
7016;DHT22;3548;48.402;9.990;2023-07-29T05:36:07;17.50;99.90
7016;DHT22;3548;48.402;9.990;2023-07-29T05:38:33;17.50;99.90
7016;DHT22;3548;48.402;9.990;2023-07-29T05:40:58;17.60;99.90
7016;DHT22;3548;48.402;9.990;2023-07-29T05:43:24;17.60;99.90
7016;DHT22;3548;48.402;9.990;2023-07-29T05:45:50;17.60;99.90
7016;DHT22;3548;48.402;9.990;2023-07-29T05:48:16;17.60;99.90
7016;DHT22;3548;48.402;9.990;2023-07-29T05:50:42;17.70;99.90
7016;DHT22;3548;48.402;9.990;2023-07-29T05:53:07;17.70;99.90
7016;DHT22;3548;48.402;9.990;2023-07-29T05:55:33;17.70;99.90
7016;DHT22;3548;48.402;9.990;2023-07-29T05:57:58;17.70;99.90
7016;DHT22;3548;48.402;9.990;2023-07-29T06:00:24;17.80;99.90
7016;DHT22;3548;48.402;9.990;2023-07-29T06:02:49;17.80;99.90
7016;DHT22;3548;48.402;9.990;2023-07-29T06:05:15;17.80;99.90
7016;DHT22;3548;48.402;9.990;2023-07-29T06:07:40;17.80;99.90
7016;DHT22;3548;48.402;9.990;2023-07-29T06:10:09;17.90;99.90
7016;DHT22;3548;48.402;9.990;2023-07-29T06:12:37;17.90;99.90
7016;DHT22;3548;48.402;9.990;2023-07-29T06:15:03;17.90;99.90
7016;DHT22;3548;48.402;9.990;2023-07-29T06:17:29;17.90;99.90
7016;DHT22;3548;48.402;9.990;2023-07-29T06:19:54;17.90;99.90
7016;DHT22;3548;48.402;9.990;2023-07-29T06:22:20;17.90;99.90
7016;DHT22;3548;48.402;9.990;2023-07-29T06:24:45;18.00;99.90
7016;DHT22;3548;48.402;9.990;2023-07-29T06:27:11;18.00;99.90
7016;DHT22;3548;48.402;9.990;2023-07-29T06:29:36;18.10;99.90
7016;DHT22;3548;48.402;9.990;2023-07-29T06:32:02;18.20;99.90
7016;DHT22;3548;48.402;9.990;2023-07-29T06:34:27;18.10;99.90
7016;DHT22;3548;48.402;9.990;2023-07-29T06:36:53;18.20;99.90
7016;DHT22;3548;48.402;9.990;2023-07-29T06:39:18;18.20;99.90
7016;DHT22;3548;48.402;9.990;2023-07-29T06:41:44;18.40;99.90
7016;DHT22;3548;48.402;9.990;2023-07-29T06:44:09;18.50;99.90
7016;DHT22;3548;48.402;9.990;2023-07-29T06:46:35;18.60;99.90
7016;DHT22;3548;48.402;9.990;2023-07-29T06:49:01;18.80;99.90
7016;DHT22;3548;48.402;9.990;2023-07-29T06:51:26;19.00;99.90
7016;DHT22;3548;48.402;9.990;2023-07-29T06:53:52;19.30;99.90
7016;DHT22;3548;48.402;9.990;2023-07-29T06:56:17;19.60;99.90
7016;DHT22;3548;48.402;9.990;2023-07-29T06:58:43;19.80;99.90
7016;DHT22;3548;48.402;9.990;2023-07-29T07:01:08;20.00;99.90
7016;DHT22;3548;48.402;9.990;2023-07-29T07:03:34;20.00;99.90
7016;DHT22;3548;48.402;9.990;2023-07-29T07:05:59;20.00;99.90
7016;DHT22;3548;48.402;9.990;2023-07-29T07:08:25;20.00;99.90
7016;DHT22;3548;48.402;9.990;2023-07-29T07:10:50;20.10;99.90
7016;DHT22;3548;48.402;9.990;2023-07-29T07:13:16;20.20;99.90
7016;DHT22;3548;48.402;9.990;2023-07-29T07:15:41;20.40;99.90
7016;DHT22;3548;48.402;9.990;2023-07-29T07:18:07;20.70;99.90
7016;DHT22;3548;48.402;9.990;2023-07-29T07:20:33;20.80;99.90
7016;DHT22;3548;48.402;9.990;2023-07-29T07:22:59;20.90;99.90
7016;DHT22;3548;48.402;9.990;2023-07-29T07:25:25;21.00;99.90
7016;DHT22;3548;48.402;9.990;2023-07-29T07:27:50;21.00;99.90
7016;DHT22;3548;48.402;9.990;2023-07-29T07:30:16;21.00;99.90
7016;DHT22;3548;48.402;9.990;2023-07-29T07:32:41;20.90;99.90
7016;DHT22;3548;48.402;9.990;2023-07-29T07:35:07;20.90;99.90
7016;DHT22;3548;48.402;9.990;2023-07-29T07:37:33;21.00;99.90
7016;DHT22;3548;48.402;9.990;2023-07-29T07:39:58;21.10;99.90
7016;DHT22;3548;48.402;9.990;2023-07-29T07:42:24;21.30;99.90
7016;DHT22;3548;48.402;9.990;2023-07-29T07:44:49;21.30;99.90
7016;DHT22;3548;48.402;9.990;2023-07-29T07:47:15;21.40;99.90
7016;DHT22;3548;48.402;9.990;2023-07-29T07:49:40;21.50;99.90
7016;DHT22;3548;48.402;9.990;2023-07-29T07:52:06;21.40;99.90
7016;DHT22;3548;48.402;9.990;2023-07-29T07:54:32;21.40;99.90
7016;DHT22;3548;48.402;9.990;2023-07-29T07:56:57;21.40;99.90
7016;DHT22;3548;48.402;9.990;2023-07-29T07:59:23;21.50;99.90
7016;DHT22;3548;48.402;9.990;2023-07-29T08:01:48;21.60;99.90
7016;DHT22;3548;48.402;9.990;2023-07-29T08:04:14;21.80;99.90
7016;DHT22;3548;48.402;9.990;2023-07-29T08:06:39;21.90;99.90
7016;DHT22;3548;48.402;9.990;2023-07-29T08:09:05;21.90;99.90
7016;DHT22;3548;48.402;9.990;2023-07-29T08:11:31;22.00;99.90
7016;DHT22;3548;48.402;9.990;2023-07-29T08:13:56;22.00;99.90
7016;DHT22;3548;48.402;9.990;2023-07-29T08:16:22;22.00;99.90
7016;DHT22;3548;48.402;9.990;2023-07-29T08:18:47;21.90;99.90
7016;DHT22;3548;48.402;9.990;2023-07-29T08:21:13;21.80;99.90
7016;DHT22;3548;48.402;9.990;2023-07-29T08:23:38;21.70;99.90
7016;DHT22;3548;48.402;9.990;2023-07-29T08:26:05;21.70;99.90
7016;DHT22;3548;48.402;9.990;2023-07-29T08:28:32;21.70;99.90
7016;DHT22;3548;48.402;9.990;2023-07-29T08:30:58;21.80;99.90
7016;DHT22;3548;48.402;9.990;2023-07-29T08:33:24;22.00;99.90
7016;DHT22;3548;48.402;9.990;2023-07-29T08:35:50;22.00;99.90
7016;DHT22;3548;48.402;9.990;2023-07-29T08:38:16;21.90;99.90
7016;DHT22;3548;48.402;9.990;2023-07-29T08:40:52;21.90;99.90
7016;DHT22;3548;48.402;9.990;2023-07-29T08:43:19;21.70;99.90
7016;DHT22;3548;48.402;9.990;2023-07-29T08:45:46;21.50;99.90
7016;DHT22;3548;48.402;9.990;2023-07-29T08:48:13;21.30;99.90
7016;DHT22;3548;48.402;9.990;2023-07-29T08:50:41;21.20;99.90
7016;DHT22;3548;48.402;9.990;2023-07-29T08:53:06;21.10;99.90
7016;DHT22;3548;48.402;9.990;2023-07-29T08:55:32;21.10;99.90
7016;DHT22;3548;48.402;9.990;2023-07-29T08:57:59;21.00;99.90
7016;DHT22;3548;48.402;9.990;2023-07-29T09:00:28;20.90;99.90
7016;DHT22;3548;48.402;9.990;2023-07-29T09:02:54;20.90;99.90
7016;DHT22;3548;48.402;9.990;2023-07-29T09:05:22;20.90;99.90
7016;DHT22;3548;48.402;9.990;2023-07-29T09:07:51;21.00;99.90
7016;DHT22;3548;48.402;9.990;2023-07-29T09:10:21;21.10;99.90
7016;DHT22;3548;48.402;9.990;2023-07-29T09:12:48;21.20;99.90
7016;DHT22;3548;48.402;9.990;2023-07-29T09:15:26;21.30;99.90
7016;DHT22;3548;48.402;9.990;2023-07-29T09:17:52;21.20;99.90
7016;DHT22;3548;48.402;9.990;2023-07-29T09:20:26;21.20;99.90
7016;DHT22;3548;48.402;9.990;2023-07-29T09:22:54;21.10;99.90
7016;DHT22;3548;48.402;9.990;2023-07-29T09:25:28;21.10;99.90
7016;DHT22;3548;48.402;9.990;2023-07-29T09:28:01;21.00;99.90
7016;DHT22;3548;48.402;9.990;2023-07-29T09:30:27;21.00;99.90
7016;DHT22;3548;48.402;9.990;2023-07-29T09:32:56;21.10;99.90
7016;DHT22;3548;48.402;9.990;2023-07-29T09:35:23;21.10;99.90
7016;DHT22;3548;48.402;9.990;2023-07-29T09:37:48;21.10;99.90
7016;DHT22;3548;48.402;9.990;2023-07-29T09:40:15;21.20;99.90
7016;DHT22;3548;48.402;9.990;2023-07-29T09:42:56;21.30;99.90
7016;DHT22;3548;48.402;9.990;2023-07-29T09:45:24;21.40;99.90
7016;DHT22;3548;48.402;9.990;2023-07-29T09:47:51;21.60;99.90
7016;DHT22;3548;48.402;9.990;2023-07-29T09:50:16;21.70;99.90
7016;DHT22;3548;48.402;9.990;2023-07-29T09:52:43;21.90;99.90
7016;DHT22;3548;48.402;9.990;2023-07-29T09:55:13;22.00;99.90
7016;DHT22;3548;48.402;9.990;2023-07-29T09:57:40;22.00;99.90
7016;DHT22;3548;48.402;9.990;2023-07-29T10:00:06;22.20;99.90
7016;DHT22;3548;48.402;9.990;2023-07-29T10:02:37;22.50;99.90
7016;DHT22;3548;48.402;9.990;2023-07-29T10:05:04;22.70;99.90
7016;DHT22;3548;48.402;9.990;2023-07-29T10:07:31;22.80;99.90
7016;DHT22;3548;48.402;9.990;2023-07-29T10:09:58;22.90;99.90
7016;DHT22;3548;48.402;9.990;2023-07-29T10:12:25;23.00;99.90
7016;DHT22;3548;48.402;9.990;2023-07-29T10:14:52;23.20;99.90
7016;DHT22;3548;48.402;9.990;2023-07-29T10:17:20;23.30;99.90
7016;DHT22;3548;48.402;9.990;2023-07-29T10:19:47;23.50;99.90
7016;DHT22;3548;48.402;9.990;2023-07-29T10:22:15;23.60;99.90
7016;DHT22;3548;48.402;9.990;2023-07-29T10:24:43;23.70;99.90
7016;DHT22;3548;48.402;9.990;2023-07-29T10:27:11;24.00;99.90
7016;DHT22;3548;48.402;9.990;2023-07-29T10:29:42;24.30;99.90
7016;DHT22;3548;48.402;9.990;2023-07-29T10:32:11;24.50;99.90
7016;DHT22;3548;48.402;9.990;2023-07-29T10:34:37;24.60;99.90
7016;DHT22;3548;48.402;9.990;2023-07-29T10:37:04;24.60;99.90
7016;DHT22;3548;48.402;9.990;2023-07-29T10:39:41;24.40;99.90
7016;DHT22;3548;48.402;9.990;2023-07-29T10:42:16;24.20;99.90
7016;DHT22;3548;48.402;9.990;2023-07-29T10:44:45;24.00;99.90
7016;DHT22;3548;48.402;9.990;2023-07-29T10:47:26;23.70;99.90
7016;DHT22;3548;48.402;9.990;2023-07-29T10:49:54;23.40;99.90
7016;DHT22;3548;48.402;9.990;2023-07-29T10:55:02;22.80;99.90
7016;DHT22;3548;48.402;9.990;2023-07-29T10:57:39;22.60;99.90
7016;DHT22;3548;48.402;9.990;2023-07-29T11:00:07;22.60;99.90
7016;DHT22;3548;48.402;9.990;2023-07-29T11:02:35;22.70;99.90
7016;DHT22;3548;48.402;9.990;2023-07-29T11:05:17;22.90;99.90
7016;DHT22;3548;48.402;9.990;2023-07-29T11:07:52;23.00;99.90
7016;DHT22;3548;48.402;9.990;2023-07-29T11:10:18;23.10;99.90
7016;DHT22;3548;48.402;9.990;2023-07-29T11:12:48;23.10;99.90
7016;DHT22;3548;48.402;9.990;2023-07-29T11:17:49;23.60;99.90
7016;DHT22;3548;48.402;9.990;2023-07-29T11:20:16;23.70;99.90
7016;DHT22;3548;48.402;9.990;2023-07-29T11:22:42;23.90;99.90
7016;DHT22;3548;48.402;9.990;2023-07-29T11:25:10;24.00;99.90
7016;DHT22;3548;48.402;9.990;2023-07-29T11:27:36;24.20;99.90
7016;DHT22;3548;48.402;9.990;2023-07-29T11:30:05;24.40;99.90
7016;DHT22;3548;48.402;9.990;2023-07-29T11:32:32;24.60;99.90
7016;DHT22;3548;48.402;9.990;2023-07-29T11:35:06;24.80;99.90
7016;DHT22;3548;48.402;9.990;2023-07-29T11:37:34;24.90;99.90
7016;DHT22;3548;48.402;9.990;2023-07-29T11:40:00;24.90;99.90
7016;DHT22;3548;48.402;9.990;2023-07-29T11:42:26;25.00;99.90
7016;DHT22;3548;48.402;9.990;2023-07-29T11:44:53;25.00;99.90
7016;DHT22;3548;48.402;9.990;2023-07-29T11:47:21;25.10;99.90
7016;DHT22;3548;48.402;9.990;2023-07-29T11:49:47;25.10;99.90
7016;DHT22;3548;48.402;9.990;2023-07-29T11:52:12;25.10;99.90
7016;DHT22;3548;48.402;9.990;2023-07-29T11:54:39;25.10;99.90
7016;DHT22;3548;48.402;9.990;2023-07-29T11:57:08;25.20;99.90
7016;DHT22;3548;48.402;9.990;2023-07-29T11:59:35;25.20;99.90
7016;DHT22;3548;48.402;9.990;2023-07-29T12:02:02;25.30;99.90
7016;DHT22;3548;48.402;9.990;2023-07-29T12:04:30;25.50;99.90
7016;DHT22;3548;48.402;9.990;2023-07-29T12:06:57;25.60;99.90
7016;DHT22;3548;48.402;9.990;2023-07-29T12:09:23;25.70;99.90
7016;DHT22;3548;48.402;9.990;2023-07-29T12:11:48;26.00;99.90
7016;DHT22;3548;48.402;9.990;2023-07-29T12:14:16;26.10;99.40
7016;DHT22;3548;48.402;9.990;2023-07-29T12:16:43;26.10;99.30
7016;DHT22;3548;48.402;9.990;2023-07-29T12:19:11;26.00;98.90
7016;DHT22;3548;48.402;9.990;2023-07-29T12:21:37;25.80;99.10
7016;DHT22;3548;48.402;9.990;2023-07-29T12:24:03;25.80;99.10
7016;DHT22;3548;48.402;9.990;2023-07-29T12:26:32;25.70;99.30
7016;DHT22;3548;48.402;9.990;2023-07-29T12:28:57;25.60;99.10
7016;DHT22;3548;48.402;9.990;2023-07-29T12:31:31;25.60;99.00
7016;DHT22;3548;48.402;9.990;2023-07-29T12:33:58;25.70;98.80
7016;DHT22;3548;48.402;9.990;2023-07-29T12:36:39;25.80;98.90
7016;DHT22;3548;48.402;9.990;2023-07-29T12:39:05;25.80;98.90
7016;DHT22;3548;48.402;9.990;2023-07-29T12:41:31;25.90;98.60
7016;DHT22;3548;48.402;9.990;2023-07-29T12:43:56;25.80;98.70
7016;DHT22;3548;48.402;9.990;2023-07-29T12:46:22;25.60;98.70
7016;DHT22;3548;48.402;9.990;2023-07-29T12:48:47;25.40;98.60
7016;DHT22;3548;48.402;9.990;2023-07-29T12:51:13;25.40;98.70
7016;DHT22;3548;48.402;9.990;2023-07-29T12:53:38;25.60;98.80
7016;DHT22;3548;48.402;9.990;2023-07-29T12:56:05;25.80;98.70
7016;DHT22;3548;48.402;9.990;2023-07-29T12:58:31;26.10;98.60
7016;DHT22;3548;48.402;9.990;2023-07-29T13:00:57;26.30;97.70
7016;DHT22;3548;48.402;9.990;2023-07-29T13:03:22;26.30;97.70
7016;DHT22;3548;48.402;9.990;2023-07-29T13:05:48;26.20;97.70
7016;DHT22;3548;48.402;9.990;2023-07-29T13:08:13;26.20;98.00
7016;DHT22;3548;48.402;9.990;2023-07-29T13:10:39;26.40;97.70
7016;DHT22;3548;48.402;9.990;2023-07-29T13:13:04;26.50;96.30
7016;DHT22;3548;48.402;9.990;2023-07-29T13:15:30;26.60;96.00
7016;DHT22;3548;48.402;9.990;2023-07-29T13:17:56;26.60;96.10
7016;DHT22;3548;48.402;9.990;2023-07-29T13:20:21;26.50;96.30
7016;DHT22;3548;48.402;9.990;2023-07-29T13:22:47;26.40;95.70
7016;DHT22;3548;48.402;9.990;2023-07-29T13:25:12;26.30;96.00
7016;DHT22;3548;48.402;9.990;2023-07-29T13:27:38;26.20;95.90
7016;DHT22;3548;48.402;9.990;2023-07-29T13:30:04;26.20;95.70
7016;DHT22;3548;48.402;9.990;2023-07-29T13:32:30;26.00;96.00
7016;DHT22;3548;48.402;9.990;2023-07-29T13:34:55;26.00;95.90
7016;DHT22;3548;48.402;9.990;2023-07-29T13:37:21;26.00;95.70
7016;DHT22;3548;48.402;9.990;2023-07-29T13:39:46;26.00;95.80
7016;DHT22;3548;48.402;9.990;2023-07-29T13:42:12;26.00;95.80
7016;DHT22;3548;48.402;9.990;2023-07-29T13:44:37;25.90;95.90
7016;DHT22;3548;48.402;9.990;2023-07-29T13:47:03;26.00;95.90
7016;DHT22;3548;48.402;9.990;2023-07-29T13:49:29;26.00;96.10
7016;DHT22;3548;48.402;9.990;2023-07-29T13:51:54;26.10;95.90
7016;DHT22;3548;48.402;9.990;2023-07-29T13:54:20;26.10;95.40
7016;DHT22;3548;48.402;9.990;2023-07-29T13:56:46;26.00;95.40
7016;DHT22;3548;48.402;9.990;2023-07-29T13:59:12;26.00;95.90
7016;DHT22;3548;48.402;9.990;2023-07-29T14:01:37;26.00;95.60
7016;DHT22;3548;48.402;9.990;2023-07-29T14:04:03;26.00;95.20
7016;DHT22;3548;48.402;9.990;2023-07-29T14:06:29;25.80;95.30
7016;DHT22;3548;48.402;9.990;2023-07-29T14:08:55;25.70;95.80
7016;DHT22;3548;48.402;9.990;2023-07-29T14:11:20;25.80;95.60
7016;DHT22;3548;48.402;9.990;2023-07-29T14:13:46;25.80;95.40
7016;DHT22;3548;48.402;9.990;2023-07-29T14:16:11;25.80;95.50
7016;DHT22;3548;48.402;9.990;2023-07-29T14:18:37;26.00;95.70
7016;DHT22;3548;48.402;9.990;2023-07-29T14:21:02;26.00;95.40
7016;DHT22;3548;48.402;9.990;2023-07-29T14:23:28;26.10;95.10
7016;DHT22;3548;48.402;9.990;2023-07-29T14:25:55;26.20;95.10
7016;DHT22;3548;48.402;9.990;2023-07-29T14:28:21;26.10;95.10
7016;DHT22;3548;48.402;9.990;2023-07-29T14:30:46;26.20;95.00
7016;DHT22;3548;48.402;9.990;2023-07-29T14:33:12;26.20;95.10
7016;DHT22;3548;48.402;9.990;2023-07-29T14:35:38;26.30;95.10
7016;DHT22;3548;48.402;9.990;2023-07-29T14:38:04;26.30;95.00
7016;DHT22;3548;48.402;9.990;2023-07-29T14:40:29;26.40;95.10
7016;DHT22;3548;48.402;9.990;2023-07-29T14:42:55;26.50;95.00
7016;DHT22;3548;48.402;9.990;2023-07-29T14:45:20;26.60;94.70
7016;DHT22;3548;48.402;9.990;2023-07-29T14:47:46;26.70;94.20
7016;DHT22;3548;48.402;9.990;2023-07-29T14:50:11;26.70;93.90
7016;DHT22;3548;48.402;9.990;2023-07-29T14:52:37;26.60;94.00
7016;DHT22;3548;48.402;9.990;2023-07-29T14:55:03;26.70;94.40
7016;DHT22;3548;48.402;9.990;2023-07-29T14:57:29;26.70;94.00
7016;DHT22;3548;48.402;9.990;2023-07-29T14:59:54;26.80;94.10
7016;DHT22;3548;48.402;9.990;2023-07-29T15:02:20;27.00;94.20
7016;DHT22;3548;48.402;9.990;2023-07-29T15:04:47;27.00;93.90
7016;DHT22;3548;48.402;9.990;2023-07-29T15:07:13;26.90;93.90
7016;DHT22;3548;48.402;9.990;2023-07-29T15:09:39;26.70;93.80
7016;DHT22;3548;48.402;9.990;2023-07-29T15:12:05;26.40;93.60
7016;DHT22;3548;48.402;9.990;2023-07-29T15:14:31;26.20;93.90
7016;DHT22;3548;48.402;9.990;2023-07-29T15:16:57;26.10;94.00
7016;DHT22;3548;48.402;9.990;2023-07-29T15:19:22;25.90;94.30
7016;DHT22;3548;48.402;9.990;2023-07-29T15:21:48;25.70;94.40
7016;DHT22;3548;48.402;9.990;2023-07-29T15:24:14;25.60;94.70
7016;DHT22;3548;48.402;9.990;2023-07-29T15:26:41;25.50;94.80
7016;DHT22;3548;48.402;9.990;2023-07-29T15:29:07;25.30;95.00
7016;DHT22;3548;48.402;9.990;2023-07-29T15:31:34;25.30;95.30
7016;DHT22;3548;48.402;9.990;2023-07-29T15:33:59;25.10;95.30
7016;DHT22;3548;48.402;9.990;2023-07-29T15:36:25;25.00;95.60
7016;DHT22;3548;48.402;9.990;2023-07-29T15:38:50;24.80;95.90
7016;DHT22;3548;48.402;9.990;2023-07-29T15:41:16;24.80;96.30
7016;DHT22;3548;48.402;9.990;2023-07-29T15:43:42;24.60;97.60
7016;DHT22;3548;48.402;9.990;2023-07-29T15:46:07;24.40;98.40
7016;DHT22;3548;48.402;9.990;2023-07-29T15:48:33;24.30;99.60
7016;DHT22;3548;48.402;9.990;2023-07-29T15:50:59;24.10;99.90
7016;DHT22;3548;48.402;9.990;2023-07-29T15:53:25;23.90;99.90
7016;DHT22;3548;48.402;9.990;2023-07-29T15:55:50;23.70;99.90
7016;DHT22;3548;48.402;9.990;2023-07-29T15:58:16;23.40;99.90
7016;DHT22;3548;48.402;9.990;2023-07-29T16:00:42;23.20;99.90
7016;DHT22;3548;48.402;9.990;2023-07-29T16:03:07;23.00;99.90
7016;DHT22;3548;48.402;9.990;2023-07-29T16:05:34;22.70;99.90
7016;DHT22;3548;48.402;9.990;2023-07-29T16:08:00;22.50;99.90
7016;DHT22;3548;48.402;9.990;2023-07-29T16:10:26;22.30;99.90
7016;DHT22;3548;48.402;9.990;2023-07-29T16:12:52;22.10;99.90